createdAt,value
2022-08-19T00:01:59.162Z,11.57
2022-08-19T00:04:32.916Z,10.60
2022-08-19T00:07:01.513Z,11.25
2022-08-19T00:09:30.130Z,11.82
2022-08-19T00:11:59.905Z,11.90
2022-08-19T00:14:28.983Z,10.93
2022-08-19T00:16:57.130Z,10.77
2022-08-19T00:19:25.522Z,11.15
2022-08-19T00:21:53.507Z,11.57
2022-08-19T00:24:21.747Z,12.85
2022-08-19T00:26:50.256Z,11.90
2022-08-19T00:29:20.828Z,12.10
2022-08-19T00:31:50.660Z,11.77
2022-08-19T00:34:18.957Z,12.98
2022-08-19T00:36:46.924Z,11.95
2022-08-19T00:39:16.998Z,10.45
2022-08-19T00:41:48.889Z,10.30
2022-08-19T00:44:27.235Z,10.05
2022-08-19T00:46:58.455Z,10.23
2022-08-19T00:49:37.352Z,10.32
2022-08-19T00:52:11.257Z,10.30
2022-08-19T00:54:41.333Z,9.57
2022-08-19T00:57:14.436Z,10.90
2022-08-19T01:00:00.309Z,11.32
2022-08-19T01:02:33.775Z,11.38
2022-08-19T01:05:06.412Z,11.32
2022-08-19T01:07:35.869Z,11.50
2022-08-19T01:10:13.914Z,11.80
2022-08-19T01:12:42.392Z,10.27
2022-08-19T01:15:13.532Z,10.65
2022-08-19T01:17:43.026Z,10.20
2022-08-19T01:20:20.466Z,9.50
2022-08-19T01:22:51.799Z,10.35
2022-08-19T01:25:23.427Z,10.73
2022-08-19T01:27:55.144Z,10.55
2022-08-19T01:30:33.783Z,10.35
2022-08-19T01:33:09.296Z,9.63
2022-08-19T01:35:56.887Z,10.07
2022-08-19T01:38:27.957Z,10.45
2022-08-19T01:41:09.737Z,11.32
2022-08-19T01:48:01.801Z,11.00
2022-08-19T01:50:33.703Z,11.30
2022-08-19T01:53:06.711Z,12.40
2022-08-19T01:55:43.563Z,12.18
2022-08-19T01:58:16.829Z,12.13
2022-08-19T02:00:45.243Z,12.10
2022-08-19T02:03:17.296Z,12.52
2022-08-19T02:05:45.733Z,12.50
2022-08-19T02:08:13.809Z,11.73
2022-08-19T02:10:44.123Z,12.88
2022-08-19T02:13:16.301Z,12.47
2022-08-19T02:15:50.965Z,13.15
2022-08-19T02:18:18.800Z,13.13
2022-08-19T02:20:49.535Z,12.60
2022-08-19T02:23:18.468Z,12.45
2022-08-19T02:25:49.242Z,11.83
2022-08-19T02:28:18.973Z,11.80
2022-08-19T02:30:49.251Z,12.25
2022-08-19T02:33:17.724Z,11.40
2022-08-19T02:35:49.088Z,11.70
2022-08-19T02:38:29.336Z,12.37
2022-08-19T02:41:01.371Z,12.43
2022-08-19T02:43:37.138Z,12.57
2022-08-19T02:46:23.549Z,12.20
2022-08-19T02:48:56.798Z,12.40
2022-08-19T02:51:45.530Z,12.90
2022-08-19T02:54:23.917Z,12.40
2022-08-19T02:56:54.168Z,12.65
2022-08-19T02:59:25.504Z,12.25
2022-08-19T03:01:53.958Z,13.13
2022-08-19T03:04:21.965Z,12.37
2022-08-19T03:06:51.356Z,12.48
2022-08-19T03:09:21.035Z,13.18
2022-08-19T03:11:52.699Z,12.02
2022-08-19T03:14:21.140Z,12.20
2022-08-19T03:16:52.595Z,11.83
2022-08-19T03:19:22.685Z,12.05
2022-08-19T03:21:52.287Z,12.77
2022-08-19T03:24:25.734Z,12.07
2022-08-19T03:27:06.203Z,11.82
2022-08-19T03:30:05.867Z,11.93
2022-08-19T03:32:35.137Z,12.00
2022-08-19T03:35:03.602Z,11.57
2022-08-19T03:37:31.753Z,12.38
2022-08-19T03:40:02.072Z,11.75
2022-08-19T03:42:38.143Z,11.87
2022-08-19T03:45:17.598Z,11.65
2022-08-19T03:47:45.985Z,11.88
2022-08-19T03:50:14.281Z,12.43
2022-08-19T03:52:45.438Z,12.90
2022-08-19T03:55:15.261Z,12.07
2022-08-19T03:57:43.284Z,11.85
2022-08-19T04:00:13.438Z,11.25
2022-08-19T04:02:58.260Z,11.30
2022-08-19T04:05:30.385Z,11.90
2022-08-19T04:08:00.595Z,12.03
2022-08-19T04:10:29.737Z,11.90
2022-08-19T04:12:57.688Z,12.18
2022-08-19T04:15:26.003Z,11.95
2022-08-19T04:17:54.413Z,12.02
2022-08-19T04:20:22.915Z,12.07
2022-08-19T04:22:50.668Z,11.88
2022-08-19T04:25:18.541Z,11.80
2022-08-19T04:27:47.656Z,11.95
2022-08-19T04:30:16.384Z,12.43
2022-08-19T04:32:44.966Z,12.27
2022-08-19T04:35:17.923Z,12.85
2022-08-19T04:37:47.353Z,12.90
2022-08-19T04:40:33.612Z,11.32
2022-08-19T04:43:02.400Z,12.52
2022-08-19T04:45:35.482Z,12.33
2022-08-19T04:48:27.230Z,12.13
2022-08-19T04:50:58.959Z,12.88
2022-08-19T04:53:35.528Z,13.02
2022-08-19T04:56:15.174Z,11.93
2022-08-19T04:58:45.539Z,12.70
2022-08-19T05:01:18.761Z,12.88
2022-08-19T05:03:46.740Z,12.05
2022-08-19T05:06:16.594Z,12.90
2022-08-19T05:08:45.511Z,12.45
2022-08-19T05:11:26.700Z,12.10
2022-08-19T05:13:55.416Z,11.48
2022-08-19T05:16:24.861Z,12.98
2022-08-19T05:19:11.536Z,11.93
2022-08-19T05:22:00.473Z,11.50
2022-08-19T05:24:29.470Z,12.10
2022-08-19T05:26:59.416Z,11.27
2022-08-19T05:29:36.338Z,11.38
2022-08-19T05:32:12.402Z,11.32
2022-08-19T05:34:40.353Z,11.10
2022-08-19T05:37:08.825Z,11.60
2022-08-19T05:39:39.409Z,11.50
2022-08-19T05:42:11.031Z,11.43
2022-08-19T05:44:42.668Z,10.02
2022-08-19T05:47:12.020Z,11.07
2022-08-19T05:49:40.882Z,10.90
2022-08-19T05:52:12.096Z,10.82
2022-08-19T05:54:42.885Z,10.70
2022-08-19T05:57:12.075Z,10.68
2022-08-19T05:59:41.253Z,9.43
2022-08-19T06:02:10.970Z,11.20
2022-08-19T06:04:46.384Z,10.07
2022-08-19T06:07:16.813Z,11.30
2022-08-19T06:10:00.175Z,10.30
2022-08-19T06:12:33.113Z,11.10
2022-08-19T06:15:03.346Z,11.27
2022-08-19T06:17:32.566Z,10.73
2022-08-19T06:20:00.719Z,11.25
2022-08-19T06:22:29.503Z,10.88
2022-08-19T06:24:58.022Z,11.30
2022-08-19T06:27:25.891Z,10.80
2022-08-19T06:29:54.159Z,10.45
2022-08-19T06:32:22.722Z,10.13
2022-08-19T06:34:50.598Z,9.55
2022-08-19T06:37:19.294Z,10.27
2022-08-19T06:39:49.517Z,9.77
2022-08-19T06:42:21.720Z,10.25
2022-08-19T06:44:53.275Z,10.27
2022-08-19T06:47:23.542Z,9.80
2022-08-19T06:50:02.886Z,10.13
2022-08-19T06:52:36.707Z,11.50
2022-08-19T06:55:07.585Z,11.23
2022-08-19T06:57:35.679Z,10.68
2022-08-19T07:00:09.723Z,11.15
2022-08-19T07:02:48.066Z,10.43
2022-08-19T07:05:24.772Z,9.20
2022-08-19T07:07:52.917Z,8.43
2022-08-19T07:10:21.037Z,9.15
2022-08-19T07:12:50.387Z,9.63
2022-08-19T07:15:18.865Z,9.00
2022-08-19T07:17:48.032Z,11.70
2022-08-19T07:20:21.312Z,10.25
2022-08-19T07:22:49.419Z,8.38
2022-08-19T07:25:19.157Z,8.50
2022-08-19T07:27:48.718Z,8.57
2022-08-19T07:30:23.617Z,8.90
2022-08-19T07:32:54.894Z,9.07
2022-08-19T07:35:24.865Z,9.18
2022-08-19T07:37:54.315Z,8.18
2022-08-19T07:40:23.001Z,9.18
2022-08-19T07:42:51.328Z,9.00
2022-08-19T07:45:19.457Z,8.23
2022-08-19T07:47:51.590Z,9.00
2022-08-19T07:50:21.067Z,11.35
2022-08-19T07:52:51.085Z,9.20
2022-08-19T07:55:42.087Z,9.67
2022-08-19T07:58:14.269Z,9.93
2022-08-19T08:00:43.551Z,9.30
2022-08-19T08:03:47.046Z,18.85
2022-08-19T08:06:34.820Z,8.27
2022-08-19T08:12:05.069Z,8.57
2022-08-19T08:15:00.713Z,7.88
2022-08-19T08:17:49.637Z,8.10
2022-08-19T08:20:20.773Z,8.48
2022-08-19T08:23:07.870Z,7.83
2022-08-19T08:25:37.609Z,8.85
2022-08-19T08:28:06.613Z,7.93
2022-08-19T08:30:37.075Z,8.20
2022-08-19T08:33:05.810Z,8.02
2022-08-19T08:35:34.737Z,8.13
2022-08-19T08:38:05.074Z,7.63
2022-08-19T08:41:07.889Z,7.75
2022-08-19T08:43:40.497Z,8.00
2022-08-19T08:46:30.916Z,6.80
2022-08-19T08:49:00.029Z,8.53
2022-08-19T08:54:18.936Z,8.07
2022-08-19T08:56:51.541Z,7.40
2022-08-19T08:59:29.477Z,7.47
2022-08-19T09:01:57.857Z,6.43
2022-08-19T09:04:26.046Z,7.03
2022-08-19T09:07:18.562Z,6.70
2022-08-19T09:10:44.719Z,6.43
2022-08-19T09:13:37.403Z,6.03
2022-08-19T09:16:11.601Z,6.27
2022-08-19T09:18:48.681Z,6.13
2022-08-19T09:21:20.048Z,6.97
2022-08-19T09:23:51.316Z,6.55
2022-08-19T09:26:23.489Z,6.40
2022-08-19T09:29:06.308Z,6.33
2022-08-19T09:31:34.969Z,6.70
2022-08-19T09:34:06.021Z,6.38
2022-08-19T09:36:35.291Z,6.55
2022-08-19T09:39:16.272Z,6.25
2022-08-19T09:41:47.462Z,6.27
2022-08-19T09:44:18.201Z,6.57
2022-08-19T09:46:50.368Z,6.57
2022-08-19T09:49:22.928Z,7.00
2022-08-19T09:51:55.194Z,6.45
2022-08-19T09:54:25.140Z,5.88
2022-08-19T09:56:54.906Z,6.13
2022-08-19T09:59:23.967Z,5.95
2022-08-19T10:01:56.134Z,6.00
2022-08-19T10:04:50.638Z,6.78
2022-08-19T10:07:18.915Z,6.53
2022-08-19T10:09:46.672Z,6.47
2022-08-19T10:12:17.920Z,5.85
2022-08-19T10:14:49.389Z,6.70
2022-08-19T10:17:19.320Z,6.28
2022-08-19T10:19:55.187Z,6.43
2022-08-19T10:22:25.491Z,7.30
2022-08-19T10:24:55.093Z,7.78
2022-08-19T10:27:23.593Z,5.78
2022-08-19T10:29:54.548Z,6.75
2022-08-19T10:32:33.651Z,6.43
2022-08-19T10:35:05.333Z,6.60
2022-08-19T10:37:34.235Z,7.32
2022-08-19T10:40:03.690Z,6.43
2022-08-19T10:42:32.612Z,6.20
2022-08-19T10:45:00.724Z,5.97
2022-08-19T10:47:31.836Z,6.30
2022-08-19T10:50:18.147Z,6.07
2022-08-19T10:52:49.457Z,6.03
2022-08-19T10:55:43.626Z,6.43
2022-08-19T10:58:17.431Z,6.67
2022-08-19T11:00:54.670Z,5.78
2022-08-19T11:03:24.292Z,5.60
2022-08-19T11:06:09.635Z,5.70
2022-08-19T11:08:40.456Z,5.50
2022-08-19T11:11:19.021Z,5.90
2022-08-19T11:13:47.884Z,6.07
2022-08-19T11:16:26.106Z,6.00
2022-08-19T11:19:00.894Z,6.30
2022-08-19T11:21:37.497Z,6.32
2022-08-19T11:24:11.251Z,5.77
2022-08-19T11:26:41.904Z,5.57
2022-08-19T11:29:14.744Z,5.00
2022-08-19T11:31:46.064Z,5.35
2022-08-19T11:34:17.924Z,5.95
2022-08-19T11:36:49.150Z,5.70
2022-08-19T11:39:20.396Z,5.60
2022-08-19T11:41:48.919Z,5.13
2022-08-19T11:44:18.445Z,5.00
2022-08-19T11:46:47.658Z,5.55
2022-08-19T11:49:20.184Z,5.17
2022-08-19T11:51:51.411Z,4.78
2022-08-19T11:54:21.723Z,5.05
2022-08-19T11:56:50.374Z,5.68
2022-08-19T11:59:18.316Z,5.45
2022-08-19T12:01:46.354Z,5.17
2022-08-19T12:04:14.697Z,5.90
2022-08-19T12:06:42.884Z,5.63
2022-08-19T12:09:12.020Z,6.00
2022-08-19T12:11:43.758Z,6.35
2022-08-19T12:14:15.408Z,5.17
2022-08-19T12:16:50.388Z,5.57
2022-08-19T12:19:22.135Z,6.35
2022-08-19T12:21:52.351Z,5.47
2022-08-19T12:24:24.628Z,6.05
2022-08-19T12:26:53.963Z,5.40
2022-08-19T12:29:24.378Z,5.07
2022-08-19T12:31:53.057Z,5.88
2022-08-19T12:34:21.876Z,5.45
2022-08-19T12:36:50.993Z,5.63
2022-08-19T12:39:19.420Z,5.43
2022-08-19T12:41:54.829Z,5.47
2022-08-19T12:44:29.553Z,5.43
2022-08-19T12:47:00.940Z,5.65
2022-08-19T12:49:47.134Z,5.20
2022-08-19T12:52:23.816Z,5.50
2022-08-19T12:54:55.672Z,5.68
2022-08-19T12:57:31.854Z,5.10
2022-08-19T13:00:04.750Z,5.70
2022-08-19T13:02:38.566Z,5.15
2022-08-19T13:05:10.501Z,4.97
2022-08-19T13:07:40.135Z,5.38
2022-08-19T13:10:10.799Z,4.65
2022-08-19T13:12:42.710Z,4.55
2022-08-19T13:18:11.774Z,4.90
2022-08-19T13:20:52.386Z,5.03
2022-08-19T13:23:21.444Z,5.47
2022-08-19T13:26:06.934Z,5.35
2022-08-19T13:28:55.271Z,5.07
2022-08-19T13:31:44.364Z,5.10
2022-08-19T13:34:13.299Z,5.30
2022-08-19T13:36:41.429Z,4.70
2022-08-19T13:39:10.728Z,5.28
2022-08-19T13:41:44.208Z,5.10
2022-08-19T13:44:12.897Z,4.73
2022-08-19T13:46:41.113Z,5.35
2022-08-19T13:49:09.931Z,4.50
2022-08-19T13:51:41.187Z,5.45
2022-08-19T13:54:11.608Z,5.00
2022-08-19T13:56:45.580Z,4.90
2022-08-19T13:59:14.151Z,5.13
2022-08-19T14:01:42.617Z,5.35
2022-08-19T14:04:11.228Z,5.03
2022-08-19T14:06:38.927Z,4.82
2022-08-19T14:09:07.168Z,4.77
2022-08-19T14:11:35.350Z,5.35
2022-08-19T14:14:03.465Z,5.00
2022-08-19T14:16:32.616Z,4.55
2022-08-19T14:19:00.821Z,4.72
2022-08-19T14:21:28.893Z,5.10
2022-08-19T14:23:57.143Z,5.20
2022-08-19T14:26:25.130Z,5.25
2022-08-19T14:28:54.006Z,4.70
2022-08-19T14:31:29.007Z,4.72
2022-08-19T14:33:58.985Z,5.07
2022-08-19T14:36:27.098Z,5.03
2022-08-19T14:38:54.901Z,4.90
2022-08-19T14:41:25.115Z,4.40
2022-08-19T14:43:55.442Z,4.82
2022-08-19T14:46:28.279Z,5.07
2022-08-19T14:48:59.937Z,5.25
2022-08-19T14:51:29.203Z,4.40
2022-08-19T14:53:57.139Z,4.70
2022-08-19T14:56:30.364Z,4.80
2022-08-19T14:59:01.584Z,4.50
2022-08-19T15:01:30.569Z,4.75
2022-08-19T15:03:58.651Z,4.80
2022-08-19T15:06:27.069Z,4.72
2022-08-19T15:08:57.073Z,4.82
2022-08-19T15:11:29.344Z,4.77
2022-08-19T15:13:57.819Z,4.50
2022-08-19T15:16:27.157Z,4.55
2022-08-19T15:19:00.336Z,4.65
2022-08-19T15:21:29.906Z,4.72
2022-08-19T15:23:59.392Z,4.20
2022-08-19T15:26:29.178Z,4.90
2022-08-19T15:28:57.301Z,5.03
2022-08-19T15:31:28.797Z,5.00
2022-08-19T15:34:01.352Z,4.93
2022-08-19T15:36:30.015Z,4.40
2022-08-19T15:38:58.729Z,5.45
2022-08-19T15:41:30.961Z,4.70
2022-08-19T15:44:04.795Z,4.65
2022-08-19T15:46:34.221Z,4.38
2022-08-19T15:49:03.253Z,4.13
2022-08-19T15:51:32.872Z,4.05
2022-08-19T15:54:00.944Z,4.30
2022-08-19T15:56:58.371Z,4.22
2022-08-19T15:59:47.250Z,4.22
2022-08-19T16:02:37.122Z,4.17
2022-08-19T16:05:26.126Z,4.10
2022-08-19T16:07:55.041Z,4.60
2022-08-19T16:10:27.199Z,4.65
2022-08-19T16:12:58.348Z,3.92
2022-08-19T16:15:28.238Z,4.20
2022-08-19T16:17:57.999Z,4.47
2022-08-19T16:20:29.866Z,4.72
2022-08-19T16:22:59.590Z,4.32
2022-08-19T16:25:30.206Z,4.28
2022-08-19T16:28:07.124Z,7.87
2022-08-19T16:30:38.998Z,5.18
2022-08-19T16:33:07.848Z,5.18
2022-08-19T16:35:35.657Z,6.20
2022-08-19T16:38:03.821Z,17.67
2022-08-19T16:40:31.652Z,7.50
2022-08-19T16:43:00.470Z,34.90
2022-08-19T16:45:28.775Z,36.53
2022-08-19T16:47:58.542Z,34.88
2022-08-19T16:50:47.802Z,32.28
2022-08-19T16:53:29.235Z,24.43
2022-08-19T16:56:00.229Z,24.02
2022-08-19T16:58:30.278Z,18.85
2022-08-19T17:01:03.241Z,14.27
2022-08-19T17:03:36.439Z,13.80
2022-08-19T17:06:20.204Z,10.93
2022-08-19T17:08:51.472Z,7.70
2022-08-19T17:11:21.416Z,7.78
2022-08-19T17:13:51.427Z,6.15
2022-08-19T17:16:22.633Z,6.10
2022-08-19T17:18:52.958Z,5.67
2022-08-19T17:21:23.253Z,5.88
2022-08-19T17:23:51.244Z,6.45
2022-08-19T17:26:19.619Z,6.50
2022-08-19T17:28:53.008Z,6.05
2022-08-19T17:31:24.189Z,5.33
2022-08-19T17:33:55.024Z,5.43
2022-08-19T17:36:26.452Z,5.90
2022-08-19T17:38:55.690Z,4.93
2022-08-19T17:41:25.127Z,5.82
2022-08-19T17:43:54.127Z,5.17
2022-08-19T17:46:21.993Z,5.57
2022-08-19T17:48:54.990Z,5.05
2022-08-19T17:51:33.493Z,5.50
2022-08-19T17:54:02.067Z,6.72
2022-08-19T17:56:29.784Z,6.13
2022-08-19T17:59:00.684Z,5.00
2022-08-19T18:01:43.805Z,5.15
2022-08-19T18:04:20.081Z,5.88
2022-08-19T18:06:53.571Z,5.18
2022-08-19T18:09:26.211Z,6.00
2022-08-19T18:11:58.975Z,5.00
2022-08-19T18:14:33.784Z,4.60
2022-08-19T18:17:06.578Z,4.93
2022-08-19T18:19:42.231Z,5.57
2022-08-19T18:22:31.741Z,5.50
2022-08-19T18:25:03.574Z,5.88
2022-08-19T18:27:31.952Z,5.85
2022-08-19T18:30:00.158Z,5.68
2022-08-19T18:32:34.236Z,5.50
2022-08-19T18:35:06.169Z,7.00
2022-08-19T18:37:34.148Z,8.13
2022-08-19T18:40:20.711Z,5.97
2022-08-19T18:43:09.819Z,6.43
2022-08-19T18:45:59.243Z,6.65
2022-08-19T18:48:46.362Z,6.57
2022-08-19T18:51:16.670Z,5.35
2022-08-19T18:53:49.195Z,5.95
2022-08-19T18:56:24.613Z,5.50
2022-08-19T18:58:53.258Z,5.40
2022-08-19T19:01:26.924Z,5.77
2022-08-19T19:03:56.049Z,5.57
2022-08-19T19:06:30.106Z,5.72
2022-08-19T19:08:58.773Z,5.95
2022-08-19T19:11:32.986Z,5.47
2022-08-19T19:14:03.482Z,5.73
2022-08-19T19:16:32.820Z,5.93
2022-08-19T19:19:00.770Z,5.55
2022-08-19T19:21:32.928Z,5.47
2022-08-19T19:24:02.749Z,5.85
2022-08-19T19:26:31.031Z,6.20
2022-08-19T19:29:00.129Z,5.93
2022-08-19T19:31:27.993Z,5.78
2022-08-19T19:33:56.812Z,5.78
2022-08-19T19:36:24.827Z,5.30
2022-08-19T19:38:53.374Z,6.03
2022-08-19T19:41:26.358Z,5.32
2022-08-19T19:44:16.341Z,5.93
2022-08-19T19:46:45.560Z,6.18
2022-08-19T19:49:13.768Z,6.30
2022-08-19T19:51:42.307Z,6.57
2022-08-19T19:54:18.682Z,6.55
2022-08-19T19:56:50.737Z,6.20
2022-08-19T19:59:19.161Z,6.22
2022-08-19T20:01:47.301Z,6.63
2022-08-19T20:04:16.728Z,7.00
2022-08-19T20:06:46.474Z,7.13
2022-08-19T20:09:19.948Z,7.20
2022-08-19T20:11:53.534Z,6.43
2022-08-19T20:14:28.678Z,6.80
2022-08-19T20:16:57.829Z,7.50
2022-08-19T20:19:34.502Z,7.25
2022-08-19T20:22:02.873Z,8.63
2022-08-19T20:24:33.971Z,7.43
2022-08-19T20:27:04.090Z,8.20
2022-08-19T20:29:38.014Z,7.57
2022-08-19T20:32:06.620Z,7.07
2022-08-19T20:34:34.653Z,7.72
2022-08-19T20:37:02.667Z,7.45
2022-08-19T20:39:30.460Z,7.07
2022-08-19T20:41:58.587Z,7.17
2022-08-19T20:44:26.357Z,7.68
2022-08-19T20:46:57.532Z,7.15
2022-08-19T20:49:27.839Z,7.10
2022-08-19T20:51:57.294Z,6.38
2022-08-19T20:54:25.393Z,6.97
2022-08-19T20:56:53.650Z,6.47
2022-08-19T20:59:26.287Z,7.18
2022-08-19T21:02:01.770Z,6.95
2022-08-19T21:04:30.056Z,6.40
2022-08-19T21:06:57.715Z,6.83
2022-08-19T21:09:25.827Z,7.30
2022-08-19T21:11:54.058Z,6.40
2022-08-19T21:14:23.040Z,7.07
2022-08-19T21:16:51.122Z,6.18
2022-08-19T21:19:23.278Z,6.23
2022-08-19T21:21:52.778Z,6.47
2022-08-19T21:24:20.694Z,6.20
2022-08-19T21:26:51.297Z,6.40
2022-08-19T21:29:20.093Z,6.45
2022-08-19T21:31:49.391Z,6.40
2022-08-19T21:34:17.856Z,6.13
2022-08-19T21:36:45.938Z,6.38
2022-08-19T21:39:13.906Z,6.75
2022-08-19T21:41:43.612Z,6.60
2022-08-19T21:44:12.133Z,6.03
2022-08-19T21:46:40.144Z,6.00
2022-08-19T21:49:07.967Z,6.82
2022-08-19T21:51:36.545Z,5.78
2022-08-19T21:54:05.968Z,6.55
2022-08-19T21:56:33.697Z,6.17
2022-08-19T21:59:01.853Z,6.47
2022-08-19T22:01:29.641Z,6.10
2022-08-19T22:03:57.522Z,7.32
2022-08-19T22:06:28.676Z,7.47
2022-08-19T22:08:57.379Z,6.90
2022-08-19T22:11:26.766Z,7.20
2022-08-19T22:13:56.433Z,6.90
2022-08-19T22:16:25.292Z,7.35
2022-08-19T22:18:54.411Z,7.10
2022-08-19T22:21:39.799Z,7.20
2022-08-19T22:24:09.396Z,7.68
2022-08-19T22:26:37.411Z,7.10
2022-08-19T22:29:05.291Z,7.05
2022-08-19T22:31:33.219Z,7.07
2022-08-19T22:34:03.994Z,7.50
2022-08-19T22:36:32.483Z,7.68
2022-08-19T22:39:00.561Z,7.30
2022-08-19T22:41:28.735Z,7.38
2022-08-19T22:43:56.525Z,7.43
2022-08-19T22:46:24.457Z,6.80
2022-08-19T22:49:00.853Z,7.40
2022-08-19T22:51:48.242Z,7.25
2022-08-19T22:54:16.443Z,7.43
2022-08-19T22:56:44.530Z,6.72
2022-08-19T22:59:12.552Z,7.57
2022-08-19T23:01:42.023Z,7.50
2022-08-19T23:04:10.395Z,7.38
2022-08-19T23:06:41.865Z,8.10
2022-08-19T23:09:10.779Z,7.60
2022-08-19T23:11:45.196Z,8.70
2022-08-19T23:14:14.702Z,8.40
2022-08-19T23:16:42.614Z,8.23
2022-08-19T23:19:11.137Z,8.60
2022-08-19T23:21:40.762Z,8.57
2022-08-19T23:24:09.435Z,8.37
2022-08-19T23:26:37.352Z,8.75
2022-08-19T23:29:24.651Z,9.32
2022-08-19T23:31:52.511Z,9.02
2022-08-19T23:34:20.593Z,9.27
2022-08-19T23:36:50.934Z,9.18
2022-08-19T23:39:19.598Z,9.00
2022-08-19T23:41:47.654Z,9.67
2022-08-19T23:44:15.577Z,8.25
2022-08-19T23:46:55.203Z,8.57
2022-08-19T23:49:25.543Z,9.00
2022-08-19T23:51:54.719Z,8.98
2022-08-19T23:54:22.882Z,9.27
2022-08-19T23:57:02.580Z,8.63
2022-08-19T23:59:42.749Z,9.18
